Aeroporto :
LOGIN :

Iscrizione | Disclaimer

   EN    FR    IT 

 










Sommario :    VFR   VFR Marginale   IFR   IFR Intensivo   IFR Molto Intensivo
Visibilità : 
Base nubi : 
>= 8 km
>= 3000ft
5 / 8 km
1000 / 3000 ft
1500m / 5 km
500 / 1000 ft
800 / 1500m
200 / 500 ft
< 800m
< 200 ft
Simboli :   Temporali  Nebbia  Neve Forte  Precipitazioni Forti  Vento > 20 kt
SIGMETs :   Varie  Temporali  Ghiacco  Turbolenza  Onda orograficha  Ceneri Vulcaniche






- Altitudine del aeroporto : 364 ft


LFAQ - Albert Bray

ULTIMO METAR :
  • 061000Z AUTO 20015KT 4700 -RA BR OVC005/// ///TCU 05/05 Q1014 TEMPO 2000 RADZ OVC004 BECMG 19017G27KT

METARs OBSOLETI :
  • 060930Z AUTO 20016KT 3900 -RA BR OVC004/// ///TCU 04/04 Q1014 TEMPO 2000 RADZ OVC004 BECMG 19017G27KT
  • 060900Z AUTO 20014KT 3300 -RA BR OVC004/// ///TCU 04/04 Q1014 TEMPO 2000 RADZ OVC004 BECMG 19017G27KT
  • 060830Z AUTO 19013KT 2500 -RA BR OVC004/// ///TCU 03/03 Q1014 TEMPO RADZ OVC004 BECMG 19017G27KT
  • 060800Z AUTO 19013KT 2700 -RA BR OVC005/// ///TCU 03/03 Q1015 TEMPO 21017G27KT RADZ OVC002
  • 060730Z AUTO 19013KT 3900 -RA BR OVC005/// ///CB 03/03 Q1015 TEMPO 21017G27KT 2000 RADZ BR OVC002

TAF TAF LFAQ
Valido dal 06 a 09 ore il 06 a 18 ore UTC


060800Z 0609/0618 19017G27KT 7000 OVC007
TEMPO 0609/0618 2000 RADZ OVC004



MetMap, La meteo Aeronautica in un colpo d'occhio ! - Copyright ORBIFLY Dicembre 2007 - Disclaimer

ORBIFLY MET'MAP TEAM :

Programmazione e sviluppo : Alexandra Zaïnal
Concezione : Baudouin d'Aumeries
Aiuto per la programmazione : Marc-Olivier Méhu
Supporto tecnico e logistico : Manuel Goepfert
Aiuto per la traduzione : Arnaldo La Scala

Contatto : metmap@orbifly.com




FONTI E CREDITI :

   NOAA